sensor_id;sensor_type;location;lat;lon;timestamp;pressure;altitude;pressure_sealevel;temperature;humidity
30967;BME280;17649;51.836;8.330;2023-05-21T00:02:57;101230.56;;;14.10;100.00
30967;BME280;17649;51.836;8.330;2023-05-21T00:05:57;101228.91;;;14.09;100.00
30967;BME280;17649;51.836;8.330;2023-05-21T00:09:03;101229.56;;;14.13;100.00
30967;BME280;17649;51.836;8.330;2023-05-21T00:12:07;101223.34;;;14.15;100.00
30967;BME280;17649;51.836;8.330;2023-05-21T00:15:08;101225.47;;;14.09;100.00
30967;BME280;17649;51.836;8.330;2023-05-21T00:18:09;101225.19;;;14.13;100.00
30967;BME280;17649;51.836;8.330;2023-05-21T00:21:10;101217.22;;;14.16;100.00
30967;BME280;17649;51.836;8.330;2023-05-21T00:24:11;101219.53;;;14.21;100.00
30967;BME280;17649;51.836;8.330;2023-05-21T00:27:14;101208.94;;;14.24;100.00
30967;BME280;17649;51.836;8.330;2023-05-21T00:30:15;101207.75;;;14.29;100.00
30967;BME280;17649;51.836;8.330;2023-05-21T00:33:15;101196.50;;;14.29;100.00
30967;BME280;17649;51.836;8.330;2023-05-21T00:36:16;101201.59;;;14.30;100.00
30967;BME280;17649;51.836;8.330;2023-05-21T00:39:16;101203.47;;;14.28;100.00
30967;BME280;17649;51.836;8.330;2023-05-21T00:42:17;101193.59;;;14.19;100.00
30967;BME280;17649;51.836;8.330;2023-05-21T00:45:18;101200.03;;;14.14;100.00
30967;BME280;17649;51.836;8.330;2023-05-21T00:48:18;101198.53;;;14.10;100.00
30967;BME280;17649;51.836;8.330;2023-05-21T00:51:19;101192.75;;;14.05;100.00
30967;BME280;17649;51.836;8.330;2023-05-21T00:54:23;101192.56;;;13.93;100.00
30967;BME280;17649;51.836;8.330;2023-05-21T00:57:24;101193.59;;;13.91;100.00
30967;BME280;17649;51.836;8.330;2023-05-21T01:00:26;101188.66;;;13.86;100.00
30967;BME280;17649;51.836;8.330;2023-05-21T01:03:27;101183.38;;;13.88;100.00
30967;BME280;17649;51.836;8.330;2023-05-21T01:06:28;101180.78;;;13.88;100.00
30967;BME280;17649;51.836;8.330;2023-05-21T01:09:28;101181.91;;;13.84;100.00
30967;BME280;17649;51.836;8.330;2023-05-21T01:12:28;101186.41;;;13.80;100.00
30967;BME280;17649;51.836;8.330;2023-05-21T01:15:30;101187.53;;;13.76;100.00
30967;BME280;17649;51.836;8.330;2023-05-21T01:18:31;101176.09;;;13.79;100.00
30967;BME280;17649;51.836;8.330;2023-05-21T01:21:34;101179.00;;;13.74;100.00
30967;BME280;17649;51.836;8.330;2023-05-21T01:24:36;101176.69;;;13.69;100.00
30967;BME280;17649;51.836;8.330;2023-05-21T01:27:37;101177.56;;;13.68;100.00
30967;BME280;17649;51.836;8.330;2023-05-21T01:30:38;101175.75;;;13.70;100.00
30967;BME280;17649;51.836;8.330;2023-05-21T01:33:40;101173.97;;;13.71;100.00
30967;BME280;17649;51.836;8.330;2023-05-21T01:36:46;101173.97;;;13.71;100.00
30967;BME280;17649;51.836;8.330;2023-05-21T01:39:52;101171.53;;;13.68;100.00
30967;BME280;17649;51.836;8.330;2023-05-21T01:42:54;101174.41;;;13.63;100.00
30967;BME280;17649;51.836;8.330;2023-05-21T01:45:55;101176.91;;;13.65;100.00
30967;BME280;17649;51.836;8.330;2023-05-21T01:48:56;101175.84;;;13.69;100.00
30967;BME280;17649;51.836;8.330;2023-05-21T01:51:56;101168.94;;;13.68;100.00
30967;BME280;17649;51.836;8.330;2023-05-21T01:54:57;101185.47;;;13.67;100.00
30967;BME280;17649;51.836;8.330;2023-05-21T01:57:59;101178.44;;;13.69;100.00
30967;BME280;17649;51.836;8.330;2023-05-21T02:00:59;101168.38;;;13.63;100.00
30967;BME280;17649;51.836;8.330;2023-05-21T02:03:59;101168.03;;;13.69;100.00
30967;BME280;17649;51.836;8.330;2023-05-21T02:07:00;101176.00;;;13.66;100.00
30967;BME280;17649;51.836;8.330;2023-05-21T02:10:01;101169.31;;;13.62;100.00
30967;BME280;17649;51.836;8.330;2023-05-21T02:13:02;101171.81;;;13.63;100.00
30967;BME280;17649;51.836;8.330;2023-05-21T02:16:02;101171.25;;;13.58;100.00
30967;BME280;17649;51.836;8.330;2023-05-21T02:19:03;101168.66;;;13.58;100.00
30967;BME280;17649;51.836;8.330;2023-05-21T02:22:03;101164.56;;;13.54;100.00
30967;BME280;17649;51.836;8.330;2023-05-21T02:25:05;101165.56;;;13.52;100.00
30967;BME280;17649;51.836;8.330;2023-05-21T02:28:06;101161.69;;;13.59;100.00
30967;BME280;17649;51.836;8.330;2023-05-21T02:31:06;101157.63;;;13.55;100.00
30967;BME280;17649;51.836;8.330;2023-05-21T02:34:06;101156.00;;;13.52;100.00
30967;BME280;17649;51.836;8.330;2023-05-21T02:37:07;101150.25;;;13.47;100.00
30967;BME280;17649;51.836;8.330;2023-05-21T02:40:08;101148.75;;;13.43;100.00
30967;BME280;17649;51.836;8.330;2023-05-21T02:43:09;101151.78;;;13.35;100.00
30967;BME280;17649;51.836;8.330;2023-05-21T02:46:09;101155.09;;;13.23;100.00
30967;BME280;17649;51.836;8.330;2023-05-21T02:49:10;101161.06;;;13.25;100.00
30967;BME280;17649;51.836;8.330;2023-05-21T02:52:10;101156.13;;;13.21;100.00
30967;BME280;17649;51.836;8.330;2023-05-21T02:55:14;101149.84;;;13.25;100.00
30967;BME280;17649;51.836;8.330;2023-05-21T02:58:14;101144.47;;;13.28;100.00
30967;BME280;17649;51.836;8.330;2023-05-21T03:01:14;101141.84;;;13.28;100.00
30967;BME280;17649;51.836;8.330;2023-05-21T03:04:16;101148.56;;;13.16;100.00
30967;BME280;17649;51.836;8.330;2023-05-21T03:07:17;101147.47;;;13.20;100.00
30967;BME280;17649;51.836;8.330;2023-05-21T03:10:18;101146.31;;;13.26;100.00
30967;BME280;17649;51.836;8.330;2023-05-21T03:13:24;101147.25;;;13.25;100.00
30967;BME280;17649;51.836;8.330;2023-05-21T03:16:25;101150.00;;;13.22;100.00
30967;BME280;17649;51.836;8.330;2023-05-21T03:19:25;101146.03;;;13.30;100.00
30967;BME280;17649;51.836;8.330;2023-05-21T03:22:26;101143.88;;;13.23;100.00
30967;BME280;17649;51.836;8.330;2023-05-21T03:25:26;101148.31;;;13.21;100.00
30967;BME280;17649;51.836;8.330;2023-05-21T03:28:26;101140.53;;;13.21;100.00
30967;BME280;17649;51.836;8.330;2023-05-21T03:31:26;101147.16;;;13.26;100.00
30967;BME280;17649;51.836;8.330;2023-05-21T03:34:27;101137.13;;;13.34;100.00
30967;BME280;17649;51.836;8.330;2023-05-21T03:37:27;101141.31;;;13.37;100.00
30967;BME280;17649;51.836;8.330;2023-05-21T03:40:27;101139.44;;;13.39;100.00
30967;BME280;17649;51.836;8.330;2023-05-21T03:43:28;101142.03;;;13.39;100.00
30967;BME280;17649;51.836;8.330;2023-05-21T03:46:28;101140.03;;;13.44;100.00
30967;BME280;17649;51.836;8.330;2023-05-21T03:49:28;101139.38;;;13.40;100.00
30967;BME280;17649;51.836;8.330;2023-05-21T03:52:29;101144.78;;;13.52;100.00
30967;BME280;17649;51.836;8.330;2023-05-21T03:55:29;101138.75;;;13.65;100.00
30967;BME280;17649;51.836;8.330;2023-05-21T03:58:29;101141.66;;;13.75;100.00
30967;BME280;17649;51.836;8.330;2023-05-21T04:01:30;101148.72;;;13.87;100.00
30967;BME280;17649;51.836;8.330;2023-05-21T04:04:31;101142.00;;;13.97;100.00
30967;BME280;17649;51.836;8.330;2023-05-21T04:07:32;101141.16;;;14.11;100.00
30967;BME280;17649;51.836;8.330;2023-05-21T04:10:33;101146.75;;;14.19;100.00
30967;BME280;17649;51.836;8.330;2023-05-21T04:13:33;101139.38;;;14.26;100.00
30967;BME280;17649;51.836;8.330;2023-05-21T04:16:33;101151.66;;;14.24;100.00
30967;BME280;17649;51.836;8.330;2023-05-21T04:19:34;101140.78;;;14.31;100.00
30967;BME280;17649;51.836;8.330;2023-05-21T04:22:34;101150.72;;;14.39;100.00
30967;BME280;17649;51.836;8.330;2023-05-21T04:25:34;101149.44;;;14.46;100.00
30967;BME280;17649;51.836;8.330;2023-05-21T04:28:35;101149.25;;;14.49;100.00
30967;BME280;17649;51.836;8.330;2023-05-21T04:31:35;101149.03;;;14.52;100.00
30967;BME280;17649;51.836;8.330;2023-05-21T04:34:35;101149.03;;;14.52;100.00
30967;BME280;17649;51.836;8.330;2023-05-21T04:37:36;101152.38;;;14.54;100.00
30967;BME280;17649;51.836;8.330;2023-05-21T04:40:41;101154.03;;;14.70;100.00
30967;BME280;17649;51.836;8.330;2023-05-21T04:43:41;101160.31;;;14.80;100.00
30967;BME280;17649;51.836;8.330;2023-05-21T04:46:42;101158.81;;;14.90;100.00
30967;BME280;17649;51.836;8.330;2023-05-21T04:49:44;101147.44;;;14.91;100.00
30967;BME280;17649;51.836;8.330;2023-05-21T04:52:45;101146.50;;;14.92;100.00
30967;BME280;17649;51.836;8.330;2023-05-21T04:55:46;101153.03;;;14.85;100.00
30967;BME280;17649;51.836;8.330;2023-05-21T04:58:47;101154.22;;;14.94;100.00
30967;BME280;17649;51.836;8.330;2023-05-21T05:01:48;101144.44;;;14.97;100.00
30967;BME280;17649;51.836;8.330;2023-05-21T05:04:48;101143.44;;;15.12;100.00
30967;BME280;17649;51.836;8.330;2023-05-21T05:07:48;101135.81;;;15.09;100.00
30967;BME280;17649;51.836;8.330;2023-05-21T05:10:49;101134.19;;;15.21;100.00
30967;BME280;17649;51.836;8.330;2023-05-21T05:13:49;101133.66;;;15.29;100.00
30967;BME280;17649;51.836;8.330;2023-05-21T05:16:50;101123.84;;;15.32;100.00
30967;BME280;17649;51.836;8.330;2023-05-21T05:19:50;101123.13;;;15.43;100.00
30967;BME280;17649;51.836;8.330;2023-05-21T05:22:50;101125.03;;;15.41;100.00
30967;BME280;17649;51.836;8.330;2023-05-21T05:25:50;101121.16;;;15.34;100.00
30967;BME280;17649;51.836;8.330;2023-05-21T05:28:51;101113.25;;;15.35;100.00
30967;BME280;17649;51.836;8.330;2023-05-21T05:31:51;101120.16;;;15.62;100.00
30967;BME280;17649;51.836;8.330;2023-05-21T05:34:51;101121.63;;;15.78;100.00
30967;BME280;17649;51.836;8.330;2023-05-21T05:37:51;101110.75;;;15.97;100.00
30967;BME280;17649;51.836;8.330;2023-05-21T05:40:52;101104.78;;;15.95;100.00
30967;BME280;17649;51.836;8.330;2023-05-21T05:43:52;101111.03;;;16.05;100.00
30967;BME280;17649;51.836;8.330;2023-05-21T05:46:52;101109.63;;;16.25;100.00
30967;BME280;17649;51.836;8.330;2023-05-21T05:49:52;101104.94;;;16.18;100.00
30967;BME280;17649;51.836;8.330;2023-05-21T05:52:53;101102.34;;;16.18;100.00
30967;BME280;17649;51.836;8.330;2023-05-21T05:55:53;101106.31;;;16.23;100.00
30967;BME280;17649;51.836;8.330;2023-05-21T05:58:53;101107.16;;;16.48;100.00
30967;BME280;17649;51.836;8.330;2023-05-21T06:01:53;101097.69;;;16.34;100.00
30967;BME280;17649;51.836;8.330;2023-05-21T06:04:54;101094.09;;;16.48;100.00
30967;BME280;17649;51.836;8.330;2023-05-21T06:07:54;101099.16;;;16.62;100.00
30967;BME280;17649;51.836;8.330;2023-05-21T06:10:54;101089.78;;;16.83;100.00
30967;BME280;17649;51.836;8.330;2023-05-21T06:13:54;101092.69;;;17.03;100.00
30967;BME280;17649;51.836;8.330;2023-05-21T06:16:55;101092.47;;;17.06;100.00
30967;BME280;17649;51.836;8.330;2023-05-21T06:19:56;101098.91;;;17.13;100.00
30967;BME280;17649;51.836;8.330;2023-05-21T06:22:56;101088.00;;;17.30;100.00
30967;BME280;17649;51.836;8.330;2023-05-21T06:25:56;101088.34;;;17.37;100.00
30967;BME280;17649;51.836;8.330;2023-05-21T06:28:56;101092.81;;;17.58;100.00
30967;BME280;17649;51.836;8.330;2023-05-21T06:31:57;101088.31;;;17.72;100.00
30967;BME280;17649;51.836;8.330;2023-05-21T06:34:57;101093.66;;;17.70;100.00
30967;BME280;17649;51.836;8.330;2023-05-21T06:37:57;101085.19;;;17.67;100.00
30967;BME280;17649;51.836;8.330;2023-05-21T06:40:57;101092.44;;;17.52;100.00
30967;BME280;17649;51.836;8.330;2023-05-21T06:43:57;101082.00;;;17.74;100.00
30967;BME280;17649;51.836;8.330;2023-05-21T06:46:58;101083.16;;;17.59;100.00
30967;BME280;17649;51.836;8.330;2023-05-21T06:49:58;101079.72;;;17.47;100.00
30967;BME280;17649;51.836;8.330;2023-05-21T06:52:58;101075.13;;;17.73;100.00
30967;BME280;17649;51.836;8.330;2023-05-21T06:55:58;101087.84;;;17.89;100.00
30967;BME280;17649;51.836;8.330;2023-05-21T06:58:59;101095.88;;;18.31;100.00
30967;BME280;17649;51.836;8.330;2023-05-21T07:01:59;101086.69;;;18.36;100.00
30967;BME280;17649;51.836;8.330;2023-05-21T07:04:59;101090.13;;;18.48;100.00
30967;BME280;17649;51.836;8.330;2023-05-21T07:08:00;101091.53;;;18.63;100.00
30967;BME280;17649;51.836;8.330;2023-05-21T07:11:00;101092.50;;;18.83;100.00
30967;BME280;17649;51.836;8.330;2023-05-21T07:14:00;101099.88;;;19.10;100.00
30967;BME280;17649;51.836;8.330;2023-05-21T07:17:00;101084.31;;;19.18;100.00
30967;BME280;17649;51.836;8.330;2023-05-21T07:20:00;101083.22;;;19.42;100.00
30967;BME280;17649;51.836;8.330;2023-05-21T07:23:01;101081.47;;;19.73;100.00
30967;BME280;17649;51.836;8.330;2023-05-21T07:26:01;101083.03;;;19.85;100.00
30967;BME280;17649;51.836;8.330;2023-05-21T07:29:01;101088.88;;;19.37;100.00
30967;BME280;17649;51.836;8.330;2023-05-21T07:32:02;101089.38;;;19.52;100.00
30967;BME280;17649;51.836;8.330;2023-05-21T07:35:02;101077.94;;;19.93;100.00
30967;BME280;17649;51.836;8.330;2023-05-21T07:38:03;101085.44;;;19.46;100.00
30967;BME280;17649;51.836;8.330;2023-05-21T07:41:03;101076.78;;;19.76;100.00
30967;BME280;17649;51.836;8.330;2023-05-21T07:44:03;101079.97;;;19.49;100.00
30967;BME280;17649;51.836;8.330;2023-05-21T07:47:04;101080.00;;;19.89;100.00
30967;BME280;17649;51.836;8.330;2023-05-21T07:50:04;101078.28;;;20.19;100.00
30967;BME280;17649;51.836;8.330;2023-05-21T07:53:04;101067.94;;;19.77;100.00
30967;BME280;17649;51.836;8.330;2023-05-21T07:56:05;101072.88;;;20.20;100.00
30967;BME280;17649;51.836;8.330;2023-05-21T07:59:05;101069.69;;;19.98;100.00
30967;BME280;17649;51.836;8.330;2023-05-21T08:02:06;101065.97;;;20.10;100.00
30967;BME280;17649;51.836;8.330;2023-05-21T08:05:07;101060.88;;;20.18;100.00
30967;BME280;17649;51.836;8.330;2023-05-21T08:08:07;101062.50;;;20.00;100.00
30967;BME280;17649;51.836;8.330;2023-05-21T08:11:07;101069.47;;;20.39;100.00
30967;BME280;17649;51.836;8.330;2023-05-21T08:14:07;101063.28;;;20.60;100.00
30967;BME280;17649;51.836;8.330;2023-05-21T08:17:08;101061.63;;;20.68;100.00
30967;BME280;17649;51.836;8.330;2023-05-21T08:20:10;101060.38;;;20.63;100.00
30967;BME280;17649;51.836;8.330;2023-05-21T08:23:12;101062.03;;;20.83;100.00
30967;BME280;17649;51.836;8.330;2023-05-21T08:26:12;101056.34;;;20.78;100.00
30967;BME280;17649;51.836;8.330;2023-05-21T08:29:15;101066.19;;;20.86;100.00
30967;BME280;17649;51.836;8.330;2023-05-21T08:32:15;101067.91;;;21.24;100.00
30967;BME280;17649;51.836;8.330;2023-05-21T08:35:16;101064.75;;;21.30;100.00
30967;BME280;17649;51.836;8.330;2023-05-21T08:38:16;101057.88;;;21.00;100.00
30967;BME280;17649;51.836;8.330;2023-05-21T08:41:17;101064.66;;;21.02;100.00
30967;BME280;17649;51.836;8.330;2023-05-21T08:44:20;101072.28;;;20.47;100.00
30967;BME280;17649;51.836;8.330;2023-05-21T08:47:24;101069.44;;;21.36;100.00
30967;BME280;17649;51.836;8.330;2023-05-21T08:50:26;101066.91;;;20.68;100.00
30967;BME280;17649;51.836;8.330;2023-05-21T08:53:26;101062.88;;;20.54;100.00
30967;BME280;17649;51.836;8.330;2023-05-21T08:56:27;101055.28;;;20.71;100.00
30967;BME280;17649;51.836;8.330;2023-05-21T08:59:30;101053.69;;;21.17;100.00
30967;BME280;17649;51.836;8.330;2023-05-21T09:02:32;101049.78;;;21.67;100.00
30967;BME280;17649;51.836;8.330;2023-05-21T09:05:33;101051.97;;;21.99;100.00
30967;BME280;17649;51.836;8.330;2023-05-21T09:08:34;101044.13;;;22.17;100.00
30967;BME280;17649;51.836;8.330;2023-05-21T09:11:34;101046.38;;;22.30;100.00
30967;BME280;17649;51.836;8.330;2023-05-21T09:14:35;101042.47;;;22.52;100.00
30967;BME280;17649;51.836;8.330;2023-05-21T09:17:36;101038.34;;;23.11;100.00
30967;BME280;17649;51.836;8.330;2023-05-21T09:20:36;101037.78;;;23.33;100.00
30967;BME280;17649;51.836;8.330;2023-05-21T09:23:36;101033.97;;;23.28;100.00
30967;BME280;17649;51.836;8.330;2023-05-21T09:26:36;101034.44;;;23.23;100.00
30967;BME280;17649;51.836;8.330;2023-05-21T09:29:40;101026.03;;;23.54;100.00
30967;BME280;17649;51.836;8.330;2023-05-21T09:32:41;101030.53;;;23.61;100.00
30967;BME280;17649;51.836;8.330;2023-05-21T09:35:44;101028.16;;;23.92;100.00
30967;BME280;17649;51.836;8.330;2023-05-21T09:38:49;101016.78;;;24.00;100.00
30967;BME280;17649;51.836;8.330;2023-05-21T09:41:50;101016.69;;;24.50;100.00
30967;BME280;17649;51.836;8.330;2023-05-21T09:44:51;101013.66;;;24.21;100.00
30967;BME280;17649;51.836;8.330;2023-05-21T09:47:52;101015.03;;;23.66;100.00
30967;BME280;17649;51.836;8.330;2023-05-21T09:50:53;101021.16;;;23.07;100.00
30967;BME280;17649;51.836;8.330;2023-05-21T09:53:54;101015.41;;;23.79;100.00
30967;BME280;17649;51.836;8.330;2023-05-21T09:56:56;101019.22;;;23.93;100.00
30967;BME280;17649;51.836;8.330;2023-05-21T09:59:57;101001.00;;;24.65;100.00
30967;BME280;17649;51.836;8.330;2023-05-21T10:02:59;101002.00;;;24.72;100.00
30967;BME280;17649;51.836;8.330;2023-05-21T10:06:00;101002.47;;;24.76;100.00
30967;BME280;17649;51.836;8.330;2023-05-21T10:09:01;101014.03;;;24.83;100.00
30967;BME280;17649;51.836;8.330;2023-05-21T10:12:02;101006.50;;;25.27;100.00
30967;BME280;17649;51.836;8.330;2023-05-21T10:15:03;101008.59;;;25.87;100.00
30967;BME280;17649;51.836;8.330;2023-05-21T10:18:03;101000.09;;;26.23;100.00
30967;BME280;17649;51.836;8.330;2023-05-21T10:21:05;100988.28;;;26.02;100.00
30967;BME280;17649;51.836;8.330;2023-05-21T10:24:09;100983.75;;;26.34;100.00
30967;BME280;17649;51.836;8.330;2023-05-21T10:27:10;100986.44;;;26.86;100.00
30967;BME280;17649;51.836;8.330;2023-05-21T10:30:11;100993.06;;;26.53;100.00
30967;BME280;17649;51.836;8.330;2023-05-21T10:33:12;100979.25;;;25.89;100.00
30967;BME280;17649;51.836;8.330;2023-05-21T10:36:15;100975.50;;;26.29;100.00
30967;BME280;17649;51.836;8.330;2023-05-21T10:39:16;100970.03;;;25.45;100.00
30967;BME280;17649;51.836;8.330;2023-05-21T11:01:35;100958.56;;;27.05;100.00
30967;BME280;17649;51.836;8.330;2023-05-21T11:04:36;100953.63;;;27.02;100.00
30967;BME280;17649;51.836;8.330;2023-05-21T11:07:57;100952.13;;;26.99;100.00
30967;BME280;17649;51.836;8.330;2023-05-21T11:10:57;100957.59;;;26.54;100.00
30967;BME280;17649;51.836;8.330;2023-05-21T11:13:58;100953.59;;;26.12;100.00
30967;BME280;17649;51.836;8.330;2023-05-21T11:16:58;100954.28;;;26.52;100.00
30967;BME280;17649;51.836;8.330;2023-05-21T11:19:59;100947.00;;;26.68;100.00
30967;BME280;17649;51.836;8.330;2023-05-21T11:23:04;100946.88;;;26.62;100.00
30967;BME280;17649;51.836;8.330;2023-05-21T11:26:05;100952.00;;;26.49;100.00
30967;BME280;17649;51.836;8.330;2023-05-21T11:32:06;100932.78;;;27.35;100.00
30967;BME280;17649;51.836;8.330;2023-05-21T11:35:08;100933.13;;;27.11;100.00
30967;BME280;17649;51.836;8.330;2023-05-21T11:38:12;100926.41;;;27.15;100.00
30967;BME280;17649;51.836;8.330;2023-05-21T11:41:13;100926.59;;;27.28;100.00
30967;BME280;17649;51.836;8.330;2023-05-21T11:44:52;100924.47;;;27.96;100.00
30967;BME280;17649;51.836;8.330;2023-05-21T11:47:45;100916.03;;;28.63;100.00
30967;BME280;17649;51.836;8.330;2023-05-21T11:50:47;100924.22;;;28.61;100.00
30967;BME280;17649;51.836;8.330;2023-05-21T11:53:47;100911.13;;;29.01;100.00
30967;BME280;17649;51.836;8.330;2023-05-21T11:56:49;100913.69;;;29.22;100.00
30967;BME280;17649;51.836;8.330;2023-05-21T11:59:50;100916.41;;;29.42;100.00
30967;BME280;17649;51.836;8.330;2023-05-21T12:02:51;100905.88;;;30.48;100.00
30967;BME280;17649;51.836;8.330;2023-05-21T12:05:51;100903.81;;;29.77;100.00
30967;BME280;17649;51.836;8.330;2023-05-21T12:08:53;100907.16;;;30.06;100.00
30967;BME280;17649;51.836;8.330;2023-05-21T12:11:57;100900.59;;;29.27;100.00
30967;BME280;17649;51.836;8.330;2023-05-21T12:14:57;100900.00;;;29.32;100.00
30967;BME280;17649;51.836;8.330;2023-05-21T12:17:58;100895.31;;;28.93;100.00
30967;BME280;17649;51.836;8.330;2023-05-21T12:20:58;100888.94;;;28.03;100.00
30967;BME280;17649;51.836;8.330;2023-05-21T12:23:59;100900.38;;;28.53;100.00
30967;BME280;17649;51.836;8.330;2023-05-21T12:27:01;100898.44;;;28.34;100.00
30967;BME280;17649;51.836;8.330;2023-05-21T12:30:01;100895.22;;;27.74;100.00
30967;BME280;17649;51.836;8.330;2023-05-21T12:33:02;100896.47;;;27.78;100.00
30967;BME280;17649;51.836;8.330;2023-05-21T12:36:03;100897.75;;;27.82;100.00
30967;BME280;17649;51.836;8.330;2023-05-21T12:39:07;100892.59;;;28.86;100.00
30967;BME280;17649;51.836;8.330;2023-05-21T12:42:07;100891.53;;;29.76;100.00
30967;BME280;17649;51.836;8.330;2023-05-21T12:45:08;100892.38;;;30.10;100.00
30967;BME280;17649;51.836;8.330;2023-05-21T12:48:08;100887.38;;;29.60;100.00
30967;BME280;17649;51.836;8.330;2023-05-21T12:51:09;100884.53;;;29.68;100.00
30967;BME280;17649;51.836;8.330;2023-05-21T12:54:12;100894.78;;;29.85;100.00
30967;BME280;17649;51.836;8.330;2023-05-21T12:57:13;100887.75;;;30.83;100.00
30967;BME280;17649;51.836;8.330;2023-05-21T13:00:14;100881.38;;;31.67;100.00
30967;BME280;17649;51.836;8.330;2023-05-21T13:03:22;100879.91;;;32.89;83.06
30967;BME280;17649;51.836;8.330;2023-05-21T13:06:22;100884.50;;;34.14;66.52
30967;BME280;17649;51.836;8.330;2023-05-21T13:09:23;100881.34;;;34.17;67.34
30967;BME280;17649;51.836;8.330;2023-05-21T13:12:24;100870.25;;;35.29;66.69
30967;BME280;17649;51.836;8.330;2023-05-21T13:15:25;100866.66;;;36.57;48.85
30967;BME280;17649;51.836;8.330;2023-05-21T13:18:25;100867.22;;;37.57;48.44
30967;BME280;17649;51.836;8.330;2023-05-21T13:21:26;100866.06;;;37.48;44.37
30967;BME280;17649;51.836;8.330;2023-05-21T13:24:26;100866.84;;;38.60;43.05
30967;BME280;17649;51.836;8.330;2023-05-21T13:27:26;100853.81;;;39.55;41.40
30967;BME280;17649;51.836;8.330;2023-05-21T13:30:26;100861.41;;;39.58;39.75
30967;BME280;17649;51.836;8.330;2023-05-21T13:33:27;100862.84;;;38.20;43.47
30967;BME280;17649;51.836;8.330;2023-05-21T13:36:27;100856.81;;;39.58;39.70
30967;BME280;17649;51.836;8.330;2023-05-21T13:39:27;100864.88;;;39.28;39.98
30967;BME280;17649;51.836;8.330;2023-05-21T13:42:28;100867.09;;;38.63;39.49
30967;BME280;17649;51.836;8.330;2023-05-21T13:45:28;100860.38;;;37.76;42.38
30967;BME280;17649;51.836;8.330;2023-05-21T13:48:28;100860.56;;;38.02;41.29
30967;BME280;17649;51.836;8.330;2023-05-21T13:51:28;100858.81;;;37.80;41.63
30967;BME280;17649;51.836;8.330;2023-05-21T13:54:29;100847.88;;;39.73;38.42
30967;BME280;17649;51.836;8.330;2023-05-21T13:57:30;100842.69;;;40.02;37.85
30967;BME280;17649;51.836;8.330;2023-05-21T14:00:30;100842.03;;;40.51;37.61
30967;BME280;17649;51.836;8.330;2023-05-21T14:03:30;100833.31;;;41.03;36.27
30967;BME280;17649;51.836;8.330;2023-05-21T14:06:31;100831.41;;;41.43;34.82
30967;BME280;17649;51.836;8.330;2023-05-21T14:09:31;100833.84;;;41.45;36.09
30967;BME280;17649;51.836;8.330;2023-05-21T14:12:31;100832.09;;;40.75;36.29
30967;BME280;17649;51.836;8.330;2023-05-21T14:15:32;100831.59;;;39.93;35.67
30967;BME280;17649;51.836;8.330;2023-05-21T14:18:32;100832.78;;;38.59;37.93
30967;BME280;17649;51.836;8.330;2023-05-21T14:21:32;100832.44;;;38.45;38.54
30967;BME280;17649;51.836;8.330;2023-05-21T14:24:33;100839.09;;;38.22;40.24
30967;BME280;17649;51.836;8.330;2023-05-21T14:27:33;100832.81;;;37.42;41.71
30967;BME280;17649;51.836;8.330;2023-05-21T14:30:33;100831.19;;;37.41;41.68
30967;BME280;17649;51.836;8.330;2023-05-21T14:33:37;100829.25;;;36.61;43.62
30967;BME280;17649;51.836;8.330;2023-05-21T14:36:37;100836.84;;;36.25;44.81
30967;BME280;17649;51.836;8.330;2023-05-21T14:39:38;100823.34;;;37.13;44.79
30967;BME280;17649;51.836;8.330;2023-05-21T14:42:38;100821.75;;;37.17;43.21
30967;BME280;17649;51.836;8.330;2023-05-21T14:45:38;100835.91;;;37.02;44.37
30967;BME280;17649;51.836;8.330;2023-05-21T14:48:39;100829.41;;;37.89;42.90
30967;BME280;17649;51.836;8.330;2023-05-21T14:51:39;100830.00;;;37.96;41.35
30967;BME280;17649;51.836;8.330;2023-05-21T14:54:39;100821.50;;;37.77;42.16
30967;BME280;17649;51.836;8.330;2023-05-21T14:57:40;100823.53;;;36.79;44.03
30967;BME280;17649;51.836;8.330;2023-05-21T15:00:40;100821.91;;;36.56;44.91
30967;BME280;17649;51.836;8.330;2023-05-21T15:03:40;100821.13;;;36.00;45.92
30967;BME280;17649;51.836;8.330;2023-05-21T15:06:40;100817.63;;;36.00;46.99
30967;BME280;17649;51.836;8.330;2023-05-21T15:09:41;100813.88;;;35.84;46.97
30967;BME280;17649;51.836;8.330;2023-05-21T15:12:41;100808.38;;;36.51;45.63
30967;BME280;17649;51.836;8.330;2023-05-21T15:15:41;100819.59;;;35.54;47.92
30967;BME280;17649;51.836;8.330;2023-05-21T15:18:41;100813.38;;;34.91;51.47
30967;BME280;17649;51.836;8.330;2023-05-21T15:21:42;100797.78;;;36.66;48.04
30967;BME280;17649;51.836;8.330;2023-05-21T15:24:42;100800.22;;;39.57;41.28
30967;BME280;17649;51.836;8.330;2023-05-21T15:27:43;100787.94;;;40.70;37.34
30967;BME280;17649;51.836;8.330;2023-05-21T15:30:44;100782.50;;;41.14;36.34
30967;BME280;17649;51.836;8.330;2023-05-21T15:33:44;100781.53;;;39.25;37.88
30967;BME280;17649;51.836;8.330;2023-05-21T15:36:44;100788.28;;;38.24;40.14
30967;BME280;17649;51.836;8.330;2023-05-21T15:39:45;100773.66;;;38.93;42.94
30967;BME280;17649;51.836;8.330;2023-05-21T15:42:46;100775.56;;;39.28;39.75
30967;BME280;17649;51.836;8.330;2023-05-21T15:45:46;100765.00;;;39.52;38.00
30967;BME280;17649;51.836;8.330;2023-05-21T15:48:47;100773.06;;;40.08;37.83
30967;BME280;17649;51.836;8.330;2023-05-21T15:51:47;100769.88;;;39.70;38.35
30967;BME280;17649;51.836;8.330;2023-05-21T15:54:47;100775.09;;;40.36;37.13
30967;BME280;17649;51.836;8.330;2023-05-21T15:57:48;100775.03;;;39.67;37.86
30967;BME280;17649;51.836;8.330;2023-05-21T16:00:48;100775.44;;;40.19;37.72